sensor_id;sensor_type;location;lat;lon;timestamp;P1;durP1;ratioP1;P2;durP2;ratioP2
66421;SDS011;53228;51.380;0.098;2022-10-23T00:01:39;8.27;;;2.83;;
66421;SDS011;53228;51.380;0.098;2022-10-23T00:04:13;7.80;;;2.63;;
66421;SDS011;53228;51.380;0.098;2022-10-23T00:06:42;15.27;;;2.95;;
66421;SDS011;53228;51.380;0.098;2022-10-23T00:09:11;7.82;;;2.75;;
66421;SDS011;53228;51.380;0.098;2022-10-23T00:11:42;10.95;;;3.50;;
66421;SDS011;53228;51.380;0.098;2022-10-23T00:14:14;8.57;;;2.35;;
66421;SDS011;53228;51.380;0.098;2022-10-23T00:16:43;11.73;;;2.65;;
66421;SDS011;53228;51.380;0.098;2022-10-23T00:19:10;12.25;;;2.38;;
66421;SDS011;53228;51.380;0.098;2022-10-23T00:21:38;11.07;;;2.85;;
66421;SDS011;53228;51.380;0.098;2022-10-23T00:24:06;11.35;;;2.30;;
66421;SDS011;53228;51.380;0.098;2022-10-23T00:26:35;15.80;;;3.10;;
66421;SDS011;53228;51.380;0.098;2022-10-23T00:29:06;9.18;;;2.70;;
66421;SDS011;53228;51.380;0.098;2022-10-23T00:31:35;11.35;;;2.55;;
66421;SDS011;53228;51.380;0.098;2022-10-23T00:34:03;12.07;;;2.05;;
66421;SDS011;53228;51.380;0.098;2022-10-23T00:36:34;6.68;;;2.40;;
66421;SDS011;53228;51.380;0.098;2022-10-23T00:39:02;10.32;;;2.45;;
66421;SDS011;53228;51.380;0.098;2022-10-23T00:41:30;13.15;;;2.60;;
66421;SDS011;53228;51.380;0.098;2022-10-23T00:44:00;6.22;;;2.88;;
66421;SDS011;53228;51.380;0.098;2022-10-23T00:46:36;6.03;;;2.30;;
66421;SDS011;53228;51.380;0.098;2022-10-23T00:49:05;9.68;;;2.25;;
66421;SDS011;53228;51.380;0.098;2022-10-23T00:51:53;11.98;;;2.50;;
66421;SDS011;53228;51.380;0.098;2022-10-23T00:54:24;10.93;;;2.47;;
66421;SDS011;53228;51.380;0.098;2022-10-23T00:56:56;9.02;;;2.33;;
66421;SDS011;53228;51.380;0.098;2022-10-23T00:59:26;11.10;;;2.50;;
66421;SDS011;53228;51.380;0.098;2022-10-23T01:01:54;8.57;;;2.42;;
66421;SDS011;53228;51.380;0.098;2022-10-23T01:04:23;9.68;;;2.28;;
66421;SDS011;53228;51.380;0.098;2022-10-23T01:06:54;8.40;;;2.25;;
66421;SDS011;53228;51.380;0.098;2022-10-23T01:13:30;8.45;;;2.38;;
66421;SDS011;53228;51.380;0.098;2022-10-23T01:15:30;8.10;;;2.10;;
66421;SDS011;53228;51.380;0.098;2022-10-23T01:18:06;6.93;;;2.47;;
66421;SDS011;53228;51.380;0.098;2022-10-23T01:34:47;10.38;;;2.83;;
66421;SDS011;53228;51.380;0.098;2022-10-23T01:37:39;8.90;;;2.80;;
66421;SDS011;53228;51.380;0.098;2022-10-23T01:40:32;6.55;;;2.28;;
66421;SDS011;53228;51.380;0.098;2022-10-23T01:43:03;6.82;;;3.17;;
66421;SDS011;53228;51.380;0.098;2022-10-23T01:48:05;8.55;;;2.63;;
66421;SDS011;53228;51.380;0.098;2022-10-23T01:50:39;9.10;;;2.58;;
66421;SDS011;53228;51.380;0.098;2022-10-23T01:53:08;9.77;;;2.72;;
66421;SDS011;53228;51.380;0.098;2022-10-23T01:55:36;11.88;;;2.67;;
66421;SDS011;53228;51.380;0.098;2022-10-23T01:58:09;8.68;;;2.88;;
66421;SDS011;53228;51.380;0.098;2022-10-23T02:00:40;7.57;;;2.60;;
66421;SDS011;53228;51.380;0.098;2022-10-23T02:03:10;3.88;;;2.50;;
66421;SDS011;53228;51.380;0.098;2022-10-23T02:05:40;8.32;;;2.75;;
66421;SDS011;53228;51.380;0.098;2022-10-23T02:08:10;9.45;;;2.65;;
66421;SDS011;53228;51.380;0.098;2022-10-23T02:10:49;13.95;;;2.97;;
66421;SDS011;53228;51.380;0.098;2022-10-23T02:24:30;13.20;;;3.50;;
66421;SDS011;53228;51.380;0.098;2022-10-23T02:27:11;9.30;;;3.38;;
66421;SDS011;53228;51.380;0.098;2022-10-23T02:29:55;7.60;;;3.28;;
66421;SDS011;53228;51.380;0.098;2022-10-23T02:32:26;11.52;;;3.80;;
66421;SDS011;53228;51.380;0.098;2022-10-23T02:34:55;8.55;;;3.50;;
66421;SDS011;53228;51.380;0.098;2022-10-23T02:37:23;9.07;;;3.30;;
66421;SDS011;53228;51.380;0.098;2022-10-23T02:39:52;10.05;;;3.05;;
66421;SDS011;53228;51.380;0.098;2022-10-23T02:42:34;9.80;;;2.72;;
66421;SDS011;53228;51.380;0.098;2022-10-23T02:48:08;10.35;;;2.97;;
66421;SDS011;53228;51.380;0.098;2022-10-23T02:50:48;17.15;;;2.92;;
66421;SDS011;53228;51.380;0.098;2022-10-23T02:53:30;12.10;;;2.70;;
66421;SDS011;53228;51.380;0.098;2022-10-23T03:02:16;7.60;;;2.67;;
66421;SDS011;53228;51.380;0.098;2022-10-23T03:04:51;9.90;;;2.92;;
66421;SDS011;53228;51.380;0.098;2022-10-23T03:07:21;5.20;;;2.30;;
66421;SDS011;53228;51.380;0.098;2022-10-23T03:10:00;9.80;;;2.63;;
66421;SDS011;53228;51.380;0.098;2022-10-23T03:12:29;12.13;;;2.72;;
66421;SDS011;53228;51.380;0.098;2022-10-23T03:14:58;8.50;;;2.35;;
66421;SDS011;53228;51.380;0.098;2022-10-23T03:17:26;10.70;;;2.40;;
66421;SDS011;53228;51.380;0.098;2022-10-23T03:19:56;6.50;;;2.45;;
66421;SDS011;53228;51.380;0.098;2022-10-23T03:22:24;8.10;;;2.88;;
66421;SDS011;53228;51.380;0.098;2022-10-23T03:24:52;7.50;;;2.67;;
66421;SDS011;53228;51.380;0.098;2022-10-23T03:27:19;11.60;;;2.60;;
66421;SDS011;53228;51.380;0.098;2022-10-23T03:29:47;9.18;;;2.40;;
66421;SDS011;53228;51.380;0.098;2022-10-23T03:32:16;8.60;;;2.03;;
66421;SDS011;53228;51.380;0.098;2022-10-23T03:34:44;8.65;;;2.20;;
66421;SDS011;53228;51.380;0.098;2022-10-23T03:37:11;8.15;;;2.70;;
66421;SDS011;53228;51.380;0.098;2022-10-23T03:39:39;10.20;;;2.13;;
66421;SDS011;53228;51.380;0.098;2022-10-23T03:42:06;7.03;;;2.13;;
66421;SDS011;53228;51.380;0.098;2022-10-23T03:44:34;13.13;;;2.70;;
66421;SDS011;53228;51.380;0.098;2022-10-23T03:47:02;6.32;;;2.20;;
66421;SDS011;53228;51.380;0.098;2022-10-23T03:49:30;11.32;;;2.15;;
66421;SDS011;53228;51.380;0.098;2022-10-23T03:52:03;6.90;;;2.53;;
66421;SDS011;53228;51.380;0.098;2022-10-23T03:54:31;11.35;;;2.58;;
66421;SDS011;53228;51.380;0.098;2022-10-23T03:56:59;5.43;;;2.20;;
66421;SDS011;53228;51.380;0.098;2022-10-23T03:59:27;6.28;;;2.20;;
66421;SDS011;53228;51.380;0.098;2022-10-23T04:01:57;6.88;;;2.58;;
66421;SDS011;53228;51.380;0.098;2022-10-23T04:04:25;7.65;;;2.47;;
66421;SDS011;53228;51.380;0.098;2022-10-23T04:06:52;6.97;;;2.25;;
66421;SDS011;53228;51.380;0.098;2022-10-23T04:09:21;5.35;;;2.20;;
66421;SDS011;53228;51.380;0.098;2022-10-23T04:11:48;13.50;;;3.03;;
66421;SDS011;53228;51.380;0.098;2022-10-23T04:14:16;12.25;;;2.78;;
66421;SDS011;53228;51.380;0.098;2022-10-23T04:16:43;5.85;;;2.13;;
66421;SDS011;53228;51.380;0.098;2022-10-23T04:19:11;8.07;;;2.40;;
66421;SDS011;53228;51.380;0.098;2022-10-23T04:21:40;6.13;;;2.10;;
66421;SDS011;53228;51.380;0.098;2022-10-23T04:24:07;8.63;;;2.35;;
66421;SDS011;53228;51.380;0.098;2022-10-23T04:26:36;4.03;;;2.03;;
66421;SDS011;53228;51.380;0.098;2022-10-23T04:29:04;4.50;;;2.05;;
66421;SDS011;53228;51.380;0.098;2022-10-23T04:31:31;6.55;;;1.85;;
66421;SDS011;53228;51.380;0.098;2022-10-23T04:33:59;8.00;;;1.95;;
66421;SDS011;53228;51.380;0.098;2022-10-23T04:36:30;4.25;;;1.65;;
66421;SDS011;53228;51.380;0.098;2022-10-23T04:39:06;3.55;;;1.70;;
66421;SDS011;53228;51.380;0.098;2022-10-23T04:41:35;6.07;;;1.65;;
66421;SDS011;53228;51.380;0.098;2022-10-23T04:44:05;7.63;;;1.80;;
66421;SDS011;53228;51.380;0.098;2022-10-23T04:46:36;2.92;;;1.40;;
66421;SDS011;53228;51.380;0.098;2022-10-23T04:49:04;9.02;;;1.98;;
66421;SDS011;53228;51.380;0.098;2022-10-23T04:51:47;4.90;;;1.58;;
66421;SDS011;53228;51.380;0.098;2022-10-23T04:54:38;2.92;;;1.70;;
66421;SDS011;53228;51.380;0.098;2022-10-23T04:57:21;5.25;;;1.65;;
66421;SDS011;53228;51.380;0.098;2022-10-23T05:00:09;8.52;;;1.77;;
66421;SDS011;53228;51.380;0.098;2022-10-23T05:02:44;6.53;;;1.55;;
66421;SDS011;53228;51.380;0.098;2022-10-23T05:05:13;7.35;;;1.70;;
66421;SDS011;53228;51.380;0.098;2022-10-23T05:07:53;5.78;;;1.48;;
66421;SDS011;53228;51.380;0.098;2022-10-23T05:10:30;5.13;;;1.40;;
66421;SDS011;53228;51.380;0.098;2022-10-23T05:13:07;2.78;;;1.48;;
66421;SDS011;53228;51.380;0.098;2022-10-23T05:15:35;3.35;;;1.45;;
66421;SDS011;53228;51.380;0.098;2022-10-23T05:18:07;7.47;;;1.63;;
66421;SDS011;53228;51.380;0.098;2022-10-23T05:20:42;4.70;;;1.40;;
66421;SDS011;53228;51.380;0.098;2022-10-23T05:23:11;3.58;;;1.35;;
66421;SDS011;53228;51.380;0.098;2022-10-23T05:25:51;3.20;;;1.08;;
66421;SDS011;53228;51.380;0.098;2022-10-23T05:28:18;4.63;;;1.58;;
66421;SDS011;53228;51.380;0.098;2022-10-23T05:30:46;8.25;;;1.67;;
66421;SDS011;53228;51.380;0.098;2022-10-23T05:33:15;4.78;;;1.50;;
66421;SDS011;53228;51.380;0.098;2022-10-23T05:35:43;3.55;;;1.60;;
66421;SDS011;53228;51.380;0.098;2022-10-23T05:40:42;9.13;;;1.77;;
66421;SDS011;53228;51.380;0.098;2022-10-23T05:43:15;5.03;;;1.40;;
66421;SDS011;53228;51.380;0.098;2022-10-23T05:45:49;3.72;;;1.13;;
66421;SDS011;53228;51.380;0.098;2022-10-23T05:48:32;3.25;;;1.27;;
66421;SDS011;53228;51.380;0.098;2022-10-23T05:51:30;3.83;;;1.38;;
66421;SDS011;53228;51.380;0.098;2022-10-23T05:54:24;2.45;;;1.35;;
66421;SDS011;53228;51.380;0.098;2022-10-23T05:57:10;5.53;;;1.30;;
66421;SDS011;53228;51.380;0.098;2022-10-23T05:59:43;1.10;;;1.00;;
66421;SDS011;53228;51.380;0.098;2022-10-23T06:02:20;4.43;;;1.42;;
66421;SDS011;53228;51.380;0.098;2022-10-23T06:04:53;5.70;;;1.35;;
66421;SDS011;53228;51.380;0.098;2022-10-23T06:07:38;3.42;;;1.10;;
66421;SDS011;53228;51.380;0.098;2022-10-23T06:10:09;4.05;;;1.15;;
66421;SDS011;53228;51.380;0.098;2022-10-23T06:12:41;3.80;;;1.35;;
66421;SDS011;53228;51.380;0.098;2022-10-23T06:15:13;3.33;;;1.40;;
66421;SDS011;53228;51.380;0.098;2022-10-23T06:18:00;2.92;;;1.20;;
66421;SDS011;53228;51.380;0.098;2022-10-23T06:20:33;3.00;;;1.05;;
66421;SDS011;53228;51.380;0.098;2022-10-23T06:23:08;2.05;;;1.38;;
66421;SDS011;53228;51.380;0.098;2022-10-23T06:26:02;4.97;;;1.40;;
66421;SDS011;53228;51.380;0.098;2022-10-23T06:28:38;3.55;;;1.50;;
66421;SDS011;53228;51.380;0.098;2022-10-23T06:31:08;3.00;;;1.25;;
66421;SDS011;53228;51.380;0.098;2022-10-23T06:33:38;2.08;;;1.10;;
66421;SDS011;53228;51.380;0.098;2022-10-23T06:36:08;6.80;;;1.95;;
66421;SDS011;53228;51.380;0.098;2022-10-23T06:38:38;7.95;;;1.73;;
66421;SDS011;53228;51.380;0.098;2022-10-23T06:41:11;5.45;;;1.92;;
66421;SDS011;53228;51.380;0.098;2022-10-23T06:43:42;7.93;;;2.45;;
66421;SDS011;53228;51.380;0.098;2022-10-23T06:46:16;7.15;;;2.20;;
66421;SDS011;53228;51.380;0.098;2022-10-23T06:49:14;9.65;;;2.15;;
66421;SDS011;53228;51.380;0.098;2022-10-23T06:51:47;8.25;;;2.22;;
66421;SDS011;53228;51.380;0.098;2022-10-23T06:54:19;4.78;;;1.70;;
66421;SDS011;53228;51.380;0.098;2022-10-23T06:56:50;4.93;;;2.28;;
66421;SDS011;53228;51.380;0.098;2022-10-23T06:59:21;8.02;;;1.95;;
66421;SDS011;53228;51.380;0.098;2022-10-23T07:01:51;8.75;;;2.13;;
66421;SDS011;53228;51.380;0.098;2022-10-23T07:04:23;6.15;;;1.98;;
66421;SDS011;53228;51.380;0.098;2022-10-23T07:06:55;6.20;;;1.80;;
66421;SDS011;53228;51.380;0.098;2022-10-23T07:09:28;8.23;;;2.00;;
66421;SDS011;53228;51.380;0.098;2022-10-23T07:11:55;4.78;;;1.67;;
66421;SDS011;53228;51.380;0.098;2022-10-23T07:14:34;7.45;;;1.88;;
66421;SDS011;53228;51.380;0.098;2022-10-23T07:17:02;9.00;;;1.58;;
66421;SDS011;53228;51.380;0.098;2022-10-23T07:19:30;4.10;;;1.70;;
66421;SDS011;53228;51.380;0.098;2022-10-23T07:22:03;4.20;;;1.70;;
66421;SDS011;53228;51.380;0.098;2022-10-23T07:24:31;5.78;;;1.92;;
66421;SDS011;53228;51.380;0.098;2022-10-23T07:27:10;10.93;;;2.30;;
66421;SDS011;53228;51.380;0.098;2022-10-23T07:29:38;10.07;;;1.85;;
66421;SDS011;53228;51.380;0.098;2022-10-23T07:32:05;8.07;;;2.22;;
66421;SDS011;53228;51.380;0.098;2022-10-23T07:34:59;10.50;;;2.20;;
66421;SDS011;53228;51.380;0.098;2022-10-23T07:37:30;7.78;;;1.90;;
66421;SDS011;53228;51.380;0.098;2022-10-23T07:40:00;7.70;;;2.42;;
66421;SDS011;53228;51.380;0.098;2022-10-23T07:42:30;7.85;;;1.98;;
66421;SDS011;53228;51.380;0.098;2022-10-23T07:44:58;12.15;;;3.05;;
66421;SDS011;53228;51.380;0.098;2022-10-23T07:47:28;3.70;;;1.92;;
66421;SDS011;53228;51.380;0.098;2022-10-23T07:49:55;10.00;;;1.92;;
66421;SDS011;53228;51.380;0.098;2022-10-23T07:52:23;7.82;;;2.10;;
66421;SDS011;53228;51.380;0.098;2022-10-23T07:55:11;7.38;;;2.03;;
66421;SDS011;53228;51.380;0.098;2022-10-23T07:57:45;5.60;;;2.17;;
66421;SDS011;53228;51.380;0.098;2022-10-23T08:00:42;10.48;;;1.95;;
66421;SDS011;53228;51.380;0.098;2022-10-23T08:03:22;9.57;;;2.38;;
66421;SDS011;53228;51.380;0.098;2022-10-23T08:05:50;4.90;;;2.30;;
66421;SDS011;53228;51.380;0.098;2022-10-23T08:08:22;7.82;;;2.20;;
66421;SDS011;53228;51.380;0.098;2022-10-23T08:10:55;7.35;;;2.25;;
66421;SDS011;53228;51.380;0.098;2022-10-23T08:13:27;7.68;;;2.53;;
66421;SDS011;53228;51.380;0.098;2022-10-23T08:16:00;6.70;;;2.45;;
66421;SDS011;53228;51.380;0.098;2022-10-23T08:18:51;6.18;;;2.13;;
66421;SDS011;53228;51.380;0.098;2022-10-23T08:21:26;11.85;;;2.40;;
66421;SDS011;53228;51.380;0.098;2022-10-23T08:24:04;5.15;;;1.83;;
66421;SDS011;53228;51.380;0.098;2022-10-23T08:26:32;6.78;;;2.25;;
66421;SDS011;53228;51.380;0.098;2022-10-23T08:29:00;6.03;;;1.75;;
66421;SDS011;53228;51.380;0.098;2022-10-23T08:31:31;5.57;;;2.05;;
66421;SDS011;53228;51.380;0.098;2022-10-23T08:34:11;4.90;;;1.95;;
66421;SDS011;53228;51.380;0.098;2022-10-23T08:36:40;8.15;;;3.15;;
66421;SDS011;53228;51.380;0.098;2022-10-23T08:39:11;6.95;;;2.25;;
66421;SDS011;53228;51.380;0.098;2022-10-23T08:42:05;7.25;;;2.00;;
66421;SDS011;53228;51.380;0.098;2022-10-23T08:53:04;12.20;;;2.88;;
66421;SDS011;53228;51.380;0.098;2022-10-23T08:55:41;9.70;;;3.13;;
66421;SDS011;53228;51.380;0.098;2022-10-23T08:59:03;6.95;;;2.45;;
66421;SDS011;53228;51.380;0.098;2022-10-23T09:03:46;12.98;;;3.33;;
66421;SDS011;53228;51.380;0.098;2022-10-23T09:06:15;7.05;;;2.47;;
66421;SDS011;53228;51.380;0.098;2022-10-23T09:08:54;5.55;;;2.42;;
66421;SDS011;53228;51.380;0.098;2022-10-23T09:11:42;7.82;;;2.42;;
66421;SDS011;53228;51.380;0.098;2022-10-23T09:17:18;9.52;;;2.70;;
66421;SDS011;53228;51.380;0.098;2022-10-23T09:20:39;8.13;;;2.22;;
66421;SDS011;53228;51.380;0.098;2022-10-23T09:22:58;10.13;;;2.65;;
66421;SDS011;53228;51.380;0.098;2022-10-23T09:25:36;6.97;;;2.75;;
66421;SDS011;53228;51.380;0.098;2022-10-23T09:28:04;8.10;;;2.67;;
66421;SDS011;53228;51.380;0.098;2022-10-23T09:30:33;9.75;;;2.40;;
66421;SDS011;53228;51.380;0.098;2022-10-23T09:33:19;7.47;;;2.70;;
66421;SDS011;53228;51.380;0.098;2022-10-23T09:38:28;6.90;;;2.53;;
66421;SDS011;53228;51.380;0.098;2022-10-23T09:41:10;6.60;;;2.50;;
66421;SDS011;53228;51.380;0.098;2022-10-23T09:43:43;4.35;;;2.10;;
66421;SDS011;53228;51.380;0.098;2022-10-23T09:46:11;7.80;;;2.90;;
66421;SDS011;53228;51.380;0.098;2022-10-23T09:48:39;5.55;;;1.98;;
66421;SDS011;53228;51.380;0.098;2022-10-23T09:51:18;4.95;;;2.13;;
66421;SDS011;53228;51.380;0.098;2022-10-23T09:53:49;5.97;;;2.22;;
66421;SDS011;53228;51.380;0.098;2022-10-23T09:59:02;8.50;;;1.98;;
66421;SDS011;53228;51.380;0.098;2022-10-23T10:01:44;2.33;;;1.38;;
66421;SDS011;53228;51.380;0.098;2022-10-23T10:04:38;6.80;;;1.83;;
66421;SDS011;53228;51.380;0.098;2022-10-23T10:07:18;3.35;;;1.77;;
66421;SDS011;53228;51.380;0.098;2022-10-23T10:09:59;7.10;;;2.10;;
66421;SDS011;53228;51.380;0.098;2022-10-23T10:12:35;4.65;;;2.50;;
66421;SDS011;53228;51.380;0.098;2022-10-23T10:23:37;10.15;;;2.55;;
66421;SDS011;53228;51.380;0.098;2022-10-23T10:26:13;5.97;;;1.65;;
66421;SDS011;53228;51.380;0.098;2022-10-23T10:29:16;6.20;;;2.15;;
66421;SDS011;53228;51.380;0.098;2022-10-23T10:31:59;6.30;;;2.30;;
66421;SDS011;53228;51.380;0.098;2022-10-23T10:34:50;7.13;;;2.05;;
66421;SDS011;53228;51.380;0.098;2022-10-23T10:39:57;4.32;;;2.20;;
66421;SDS011;53228;51.380;0.098;2022-10-23T10:45:46;9.45;;;2.25;;
66421;SDS011;53228;51.380;0.098;2022-10-23T10:48:38;6.97;;;1.98;;
66421;SDS011;53228;51.380;0.098;2022-10-23T10:51:29;11.20;;;2.47;;
66421;SDS011;53228;51.380;0.098;2022-10-23T10:54:40;4.97;;;1.85;;
66421;SDS011;53228;51.380;0.098;2022-10-23T10:57:32;5.32;;;1.83;;
66421;SDS011;53228;51.380;0.098;2022-10-23T11:00:10;5.65;;;2.45;;
66421;SDS011;53228;51.380;0.098;2022-10-23T11:02:45;7.93;;;1.80;;
66421;SDS011;53228;51.380;0.098;2022-10-23T11:05:40;6.55;;;1.95;;
66421;SDS011;53228;51.380;0.098;2022-10-23T11:10:49;8.85;;;1.88;;
66421;SDS011;53228;51.380;0.098;2022-10-23T11:13:22;5.72;;;1.77;;
66421;SDS011;53228;51.380;0.098;2022-10-23T11:18:39;6.20;;;2.00;;
66421;SDS011;53228;51.380;0.098;2022-10-23T11:38:36;4.70;;;1.30;;
66421;SDS011;53228;51.380;0.098;2022-10-23T11:41:17;7.45;;;2.30;;
66421;SDS011;53228;51.380;0.098;2022-10-23T11:43:57;8.60;;;2.45;;
66421;SDS011;53228;51.380;0.098;2022-10-23T11:46:34;7.88;;;2.05;;
66421;SDS011;53228;51.380;0.098;2022-10-23T11:49:04;7.05;;;2.47;;
66421;SDS011;53228;51.380;0.098;2022-10-23T11:51:45;7.25;;;2.80;;
66421;SDS011;53228;51.380;0.098;2022-10-23T11:56:52;10.05;;;2.20;;
66421;SDS011;53228;51.380;0.098;2022-10-23T11:59:29;4.85;;;2.00;;
66421;SDS011;53228;51.380;0.098;2022-10-23T12:01:59;8.07;;;2.50;;
66421;SDS011;53228;51.380;0.098;2022-10-23T12:04:37;6.90;;;2.60;;
66421;SDS011;53228;51.380;0.098;2022-10-23T12:07:15;8.52;;;2.72;;
66421;SDS011;53228;51.380;0.098;2022-10-23T12:09:54;8.93;;;2.55;;
66421;SDS011;53228;51.380;0.098;2022-10-23T12:12:30;6.60;;;2.00;;
66421;SDS011;53228;51.380;0.098;2022-10-23T12:17:37;14.48;;;2.80;;
66421;SDS011;53228;51.380;0.098;2022-10-23T12:25:14;14.38;;;4.15;;
66421;SDS011;53228;51.380;0.098;2022-10-23T12:28:09;5.95;;;2.40;;
66421;SDS011;53228;51.380;0.098;2022-10-23T12:38:56;4.35;;;1.85;;
66421;SDS011;53228;51.380;0.098;2022-10-23T12:41:25;15.90;;;2.90;;
66421;SDS011;53228;51.380;0.098;2022-10-23T12:43:55;11.35;;;2.80;;
66421;SDS011;53228;51.380;0.098;2022-10-23T12:46:35;7.38;;;2.85;;
66421;SDS011;53228;51.380;0.098;2022-10-23T12:49:15;12.63;;;3.17;;
66421;SDS011;53228;51.380;0.098;2022-10-23T12:51:45;6.65;;;2.80;;
66421;SDS011;53228;51.380;0.098;2022-10-23T12:54:23;5.03;;;2.20;;
66421;SDS011;53228;51.380;0.098;2022-10-23T12:56:52;5.28;;;2.35;;
66421;SDS011;53228;51.380;0.098;2022-10-23T12:59:22;4.40;;;2.40;;
66421;SDS011;53228;51.380;0.098;2022-10-23T13:01:58;4.40;;;2.35;;
66421;SDS011;53228;51.380;0.098;2022-10-23T13:04:30;8.07;;;2.80;;
66421;SDS011;53228;51.380;0.098;2022-10-23T13:08:18;6.65;;;3.53;;
66421;SDS011;53228;51.380;0.098;2022-10-23T13:11:08;10.18;;;3.90;;
66421;SDS011;53228;51.380;0.098;2022-10-23T13:13:41;18.17;;;6.82;;
66421;SDS011;53228;51.380;0.098;2022-10-23T13:16:16;12.23;;;4.97;;
66421;SDS011;53228;51.380;0.098;2022-10-23T13:18:45;8.60;;;5.53;;
66421;SDS011;53228;51.380;0.098;2022-10-23T13:21:23;7.85;;;4.93;;
66421;SDS011;53228;51.380;0.098;2022-10-23T13:23:53;12.77;;;4.90;;
66421;SDS011;53228;51.380;0.098;2022-10-23T13:26:28;9.38;;;4.90;;
66421;SDS011;53228;51.380;0.098;2022-10-23T13:31:49;8.25;;;4.70;;
66421;SDS011;53228;51.380;0.098;2022-10-23T13:34:18;8.65;;;4.57;;
66421;SDS011;53228;51.380;0.098;2022-10-23T13:36:53;10.07;;;4.85;;
66421;SDS011;53228;51.380;0.098;2022-10-23T13:39:24;6.10;;;3.85;;
66421;SDS011;53228;51.380;0.098;2022-10-23T13:41:54;7.53;;;3.45;;
66421;SDS011;53228;51.380;0.098;2022-10-23T13:44:22;7.07;;;3.55;;
66421;SDS011;53228;51.380;0.098;2022-10-23T13:46:51;6.30;;;3.30;;
66421;SDS011;53228;51.380;0.098;2022-10-23T13:49:19;9.07;;;4.18;;
66421;SDS011;53228;51.380;0.098;2022-10-23T13:51:49;9.75;;;4.90;;
66421;SDS011;53228;51.380;0.098;2022-10-23T13:54:19;8.63;;;4.55;;
66421;SDS011;53228;51.380;0.098;2022-10-23T13:56:52;5.80;;;3.97;;
66421;SDS011;53228;51.380;0.098;2022-10-23T13:59:20;9.15;;;4.70;;
66421;SDS011;53228;51.380;0.098;2022-10-23T14:01:48;7.32;;;4.65;;
66421;SDS011;53228;51.380;0.098;2022-10-23T14:04:17;11.77;;;3.90;;
66421;SDS011;53228;51.380;0.098;2022-10-23T14:06:46;8.60;;;3.38;;
66421;SDS011;53228;51.380;0.098;2022-10-23T14:09:14;10.52;;;3.50;;
66421;SDS011;53228;51.380;0.098;2022-10-23T14:11:46;7.18;;;3.78;;
66421;SDS011;53228;51.380;0.098;2022-10-23T14:14:14;7.03;;;3.30;;
66421;SDS011;53228;51.380;0.098;2022-10-23T14:16:44;6.40;;;3.15;;
66421;SDS011;53228;51.380;0.098;2022-10-23T14:19:12;9.48;;;3.80;;
66421;SDS011;53228;51.380;0.098;2022-10-23T14:21:41;8.32;;;3.97;;
66421;SDS011;53228;51.380;0.098;2022-10-23T14:24:09;12.02;;;4.25;;
66421;SDS011;53228;51.380;0.098;2022-10-23T14:26:37;9.18;;;4.47;;
66421;SDS011;53228;51.380;0.098;2022-10-23T14:29:05;8.25;;;5.00;;
66421;SDS011;53228;51.380;0.098;2022-10-23T14:31:39;8.98;;;3.88;;
66421;SDS011;53228;51.380;0.098;2022-10-23T14:34:07;6.90;;;3.95;;
66421;SDS011;53228;51.380;0.098;2022-10-23T14:36:35;11.85;;;3.95;;
66421;SDS011;53228;51.380;0.098;2022-10-23T14:39:16;9.60;;;4.05;;
66421;SDS011;53228;51.380;0.098;2022-10-23T14:41:44;7.53;;;4.10;;
66421;SDS011;53228;51.380;0.098;2022-10-23T14:44:12;7.10;;;3.40;;
66421;SDS011;53228;51.380;0.098;2022-10-23T14:46:39;6.97;;;3.30;;
66421;SDS011;53228;51.380;0.098;2022-10-23T14:49:07;8.95;;;3.50;;
66421;SDS011;53228;51.380;0.098;2022-10-23T14:51:34;11.02;;;3.67;;
66421;SDS011;53228;51.380;0.098;2022-10-23T14:54:03;6.90;;;3.92;;
66421;SDS011;53228;51.380;0.098;2022-10-23T14:59:01;9.27;;;4.30;;
66421;SDS011;53228;51.380;0.098;2022-10-23T15:01:34;7.20;;;3.45;;
66421;SDS011;53228;51.380;0.098;2022-10-23T15:04:11;9.02;;;3.83;;
66421;SDS011;53228;51.380;0.098;2022-10-23T15:06:41;12.50;;;5.07;;
66421;SDS011;53228;51.380;0.098;2022-10-23T15:09:09;6.10;;;3.03;;
66421;SDS011;53228;51.380;0.098;2022-10-23T15:11:36;7.57;;;3.70;;
66421;SDS011;53228;51.380;0.098;2022-10-23T15:14:04;9.10;;;4.05;;
66421;SDS011;53228;51.380;0.098;2022-10-23T15:16:34;9.45;;;4.28;;
66421;SDS011;53228;51.380;0.098;2022-10-23T15:19:08;6.45;;;3.83;;
66421;SDS011;53228;51.380;0.098;2022-10-23T15:21:44;8.27;;;4.32;;
66421;SDS011;53228;51.380;0.098;2022-10-23T15:24:13;10.40;;;3.60;;
66421;SDS011;53228;51.380;0.098;2022-10-23T15:26:41;8.00;;;3.55;;
66421;SDS011;53228;51.380;0.098;2022-10-23T15:29:09;10.15;;;3.72;;
66421;SDS011;53228;51.380;0.098;2022-10-23T15:34:09;8.45;;;3.75;;
66421;SDS011;53228;51.380;0.098;2022-10-23T15:36:44;6.55;;;3.20;;
66421;SDS011;53228;51.380;0.098;2022-10-23T15:39:14;10.90;;;3.67;;
66421;SDS011;53228;51.380;0.098;2022-10-23T15:41:44;8.15;;;3.60;;
66421;SDS011;53228;51.380;0.098;2022-10-23T15:44:13;10.80;;;3.78;;
66421;SDS011;53228;51.380;0.098;2022-10-23T15:46:43;8.80;;;4.30;;
66421;SDS011;53228;51.380;0.098;2022-10-23T15:49:11;15.23;;;5.68;;
66421;SDS011;53228;51.380;0.098;2022-10-23T15:51:39;16.90;;;7.88;;
66421;SDS011;53228;51.380;0.098;2022-10-23T15:54:08;13.55;;;6.05;;
66421;SDS011;53228;51.380;0.098;2022-10-23T15:56:39;12.57;;;5.00;;
66421;SDS011;53228;51.380;0.098;2022-10-23T15:59:06;12.10;;;5.93;;
66421;SDS011;53228;51.380;0.098;2022-10-23T16:01:34;17.73;;;4.65;;
66421;SDS011;53228;51.380;0.098;2022-10-23T16:04:02;11.05;;;6.70;;
66421;SDS011;53228;51.380;0.098;2022-10-23T16:06:30;9.40;;;4.50;;
66421;SDS011;53228;51.380;0.098;2022-10-23T16:08:58;8.95;;;2.90;;
66421;SDS011;53228;51.380;0.098;2022-10-23T16:11:28;6.50;;;2.45;;
66421;SDS011;53228;51.380;0.098;2022-10-23T16:13:57;4.40;;;0.90;;
66421;SDS011;53228;51.380;0.098;2022-10-23T16:16:26;7.63;;;1.00;;
66421;SDS011;53228;51.380;0.098;2022-10-23T16:18:54;3.20;;;0.85;;
66421;SDS011;53228;51.380;0.098;2022-10-23T16:21:25;4.88;;;1.20;;
66421;SDS011;53228;51.380;0.098;2022-10-23T16:23:54;3.17;;;1.10;;
66421;SDS011;53228;51.380;0.098;2022-10-23T16:26:23;1.70;;;1.00;;
66421;SDS011;53228;51.380;0.098;2022-10-23T16:28:52;2.88;;;1.05;;
66421;SDS011;53228;51.380;0.098;2022-10-23T16:31:21;2.58;;;0.82;;
66421;SDS011;53228;51.380;0.098;2022-10-23T16:33:50;2.78;;;0.90;;
66421;SDS011;53228;51.380;0.098;2022-10-23T16:36:19;3.92;;;0.90;;
66421;SDS011;53228;51.380;0.098;2022-10-23T16:39:22;1.33;;;0.73;;
66421;SDS011;53228;51.380;0.098;2022-10-23T16:42:08;5.70;;;0.90;;
66421;SDS011;53228;51.380;0.098;2022-10-23T16:44:53;1.60;;;0.90;;
66421;SDS011;53228;51.380;0.098;2022-10-23T16:47:29;2.50;;;0.70;;
66421;SDS011;53228;51.380;0.098;2022-10-23T16:49:56;1.15;;;0.93;;
66421;SDS011;53228;51.380;0.098;2022-10-23T16:52:25;6.25;;;2.65;;
66421;SDS011;53228;51.380;0.098;2022-10-23T16:54:53;10.30;;;3.33;;
66421;SDS011;53228;51.380;0.098;2022-10-23T16:57:20;9.35;;;3.60;;
66421;SDS011;53228;51.380;0.098;2022-10-23T16:59:48;9.00;;;3.83;;
66421;SDS011;53228;51.380;0.098;2022-10-23T17:02:16;11.20;;;3.88;;
66421;SDS011;53228;51.380;0.098;2022-10-23T17:04:43;5.78;;;2.30;;
66421;SDS011;53228;51.380;0.098;2022-10-23T17:07:11;4.57;;;2.03;;
66421;SDS011;53228;51.380;0.098;2022-10-23T17:09:39;7.45;;;1.52;;
66421;SDS011;53228;51.380;0.098;2022-10-23T17:12:07;3.03;;;1.20;;
66421;SDS011;53228;51.380;0.098;2022-10-23T17:14:34;2.95;;;1.20;;
66421;SDS011;53228;51.380;0.098;2022-10-23T17:17:04;3.30;;;1.55;;
66421;SDS011;53228;51.380;0.098;2022-10-23T17:19:32;8.27;;;3.53;;
66421;SDS011;53228;51.380;0.098;2022-10-23T17:22:15;2.63;;;2.10;;
66421;SDS011;53228;51.380;0.098;2022-10-23T17:24:43;7.60;;;2.88;;
66421;SDS011;53228;51.380;0.098;2022-10-23T17:27:16;5.85;;;2.28;;
66421;SDS011;53228;51.380;0.098;2022-10-23T17:29:43;4.32;;;2.22;;